sensor_id;sensor_type;location;lat;lon;timestamp;temperature;humidity
4187;DHT22;2107;52.306;10.484;2023-10-08T00:00:25;12.20;99.90
4187;DHT22;2107;52.306;10.484;2023-10-08T00:03:09;12.20;99.90
4187;DHT22;2107;52.306;10.484;2023-10-08T00:05:36;12.10;99.90
4187;DHT22;2107;52.306;10.484;2023-10-08T00:08:03;12.20;99.90
4187;DHT22;2107;52.306;10.484;2023-10-08T00:10:34;12.20;99.90
4187;DHT22;2107;52.306;10.484;2023-10-08T00:13:03;12.20;99.90
4187;DHT22;2107;52.306;10.484;2023-10-08T00:15:35;12.20;99.90
4187;DHT22;2107;52.306;10.484;2023-10-08T00:18:03;12.20;99.90
4187;DHT22;2107;52.306;10.484;2023-10-08T00:20:32;12.10;99.90
4187;DHT22;2107;52.306;10.484;2023-10-08T00:23:08;12.10;99.90
4187;DHT22;2107;52.306;10.484;2023-10-08T00:25:35;12.10;99.90
4187;DHT22;2107;52.306;10.484;2023-10-08T00:28:07;12.10;99.90
4187;DHT22;2107;52.306;10.484;2023-10-08T00:30:40;12.00;99.90
4187;DHT22;2107;52.306;10.484;2023-10-08T00:33:08;12.00;99.90
4187;DHT22;2107;52.306;10.484;2023-10-08T00:35:40;12.00;99.90
4187;DHT22;2107;52.306;10.484;2023-10-08T00:38:08;12.00;99.90
4187;DHT22;2107;52.306;10.484;2023-10-08T00:40:40;12.00;99.90
4187;DHT22;2107;52.306;10.484;2023-10-08T00:45:55;12.00;99.90
4187;DHT22;2107;52.306;10.484;2023-10-08T00:48:24;12.00;99.90
4187;DHT22;2107;52.306;10.484;2023-10-08T00:50:54;12.00;99.90
4187;DHT22;2107;52.306;10.484;2023-10-08T00:53:34;12.00;99.90
4187;DHT22;2107;52.306;10.484;2023-10-08T00:56:05;11.90;99.90
4187;DHT22;2107;52.306;10.484;2023-10-08T00:58:39;11.80;99.90
4187;DHT22;2107;52.306;10.484;2023-10-08T01:01:08;11.80;99.90
4187;DHT22;2107;52.306;10.484;2023-10-08T01:03:37;11.70;99.90
4187;DHT22;2107;52.306;10.484;2023-10-08T01:06:10;11.60;99.90
4187;DHT22;2107;52.306;10.484;2023-10-08T01:08:37;11.60;99.90
4187;DHT22;2107;52.306;10.484;2023-10-08T01:11:20;11.50;99.90
4187;DHT22;2107;52.306;10.484;2023-10-08T01:13:52;11.40;99.90
4187;DHT22;2107;52.306;10.484;2023-10-08T01:16:22;11.20;99.90
4187;DHT22;2107;52.306;10.484;2023-10-08T01:18:50;11.20;99.90
4187;DHT22;2107;52.306;10.484;2023-10-08T01:21:19;11.10;99.90
4187;DHT22;2107;52.306;10.484;2023-10-08T01:24:01;10.80;99.90
4187;DHT22;2107;52.306;10.484;2023-10-08T01:26:31;10.50;99.90
4187;DHT22;2107;52.306;10.484;2023-10-08T01:28:59;10.10;99.90
4187;DHT22;2107;52.306;10.484;2023-10-08T01:31:29;10.00;99.90
4187;DHT22;2107;52.306;10.484;2023-10-08T01:33:57;10.00;99.90
4187;DHT22;2107;52.306;10.484;2023-10-08T01:36:24;10.00;99.90
4187;DHT22;2107;52.306;10.484;2023-10-08T01:38:51;10.00;99.90
4187;DHT22;2107;52.306;10.484;2023-10-08T01:41:21;10.00;99.90
4187;DHT22;2107;52.306;10.484;2023-10-08T01:43:55;10.00;99.90
4187;DHT22;2107;52.306;10.484;2023-10-08T01:46:23;10.10;99.90
4187;DHT22;2107;52.306;10.484;2023-10-08T01:48:52;10.10;99.90
4187;DHT22;2107;52.306;10.484;2023-10-08T01:51:26;10.20;99.90
4187;DHT22;2107;52.306;10.484;2023-10-08T01:54:02;10.20;99.90
4187;DHT22;2107;52.306;10.484;2023-10-08T01:56:37;10.30;99.90
4187;DHT22;2107;52.306;10.484;2023-10-08T01:59:04;10.40;99.90
4187;DHT22;2107;52.306;10.484;2023-10-08T02:01:31;10.40;99.90
4187;DHT22;2107;52.306;10.484;2023-10-08T02:03:58;10.40;99.90
4187;DHT22;2107;52.306;10.484;2023-10-08T02:06:25;10.40;99.90
4187;DHT22;2107;52.306;10.484;2023-10-08T02:08:52;10.40;99.90
4187;DHT22;2107;52.306;10.484;2023-10-08T02:11:19;10.40;99.90
4187;DHT22;2107;52.306;10.484;2023-10-08T02:13:48;10.30;99.90
4187;DHT22;2107;52.306;10.484;2023-10-08T02:16:18;10.40;99.90
4187;DHT22;2107;52.306;10.484;2023-10-08T02:18:45;10.50;99.90
4187;DHT22;2107;52.306;10.484;2023-10-08T02:21:12;10.40;99.90
4187;DHT22;2107;52.306;10.484;2023-10-08T02:23:40;10.40;99.90
4187;DHT22;2107;52.306;10.484;2023-10-08T02:26:09;10.40;99.90
4187;DHT22;2107;52.306;10.484;2023-10-08T02:28:36;10.50;99.90
4187;DHT22;2107;52.306;10.484;2023-10-08T02:31:05;10.50;99.90
4187;DHT22;2107;52.306;10.484;2023-10-08T02:33:34;10.50;99.90
4187;DHT22;2107;52.306;10.484;2023-10-08T02:36:02;10.40;99.90
4187;DHT22;2107;52.306;10.484;2023-10-08T02:38:30;10.50;99.90
4187;DHT22;2107;52.306;10.484;2023-10-08T02:41:03;10.50;99.90
4187;DHT22;2107;52.306;10.484;2023-10-08T02:43:33;10.50;99.90
4187;DHT22;2107;52.306;10.484;2023-10-08T02:46:02;10.40;99.90
4187;DHT22;2107;52.306;10.484;2023-10-08T02:48:34;10.30;99.90
4187;DHT22;2107;52.306;10.484;2023-10-08T02:51:01;10.30;99.90
4187;DHT22;2107;52.306;10.484;2023-10-08T02:53:37;10.40;99.90
4187;DHT22;2107;52.306;10.484;2023-10-08T02:56:07;10.30;99.90
4187;DHT22;2107;52.306;10.484;2023-10-08T02:58:38;10.30;99.90
4187;DHT22;2107;52.306;10.484;2023-10-08T03:01:07;10.40;99.90
4187;DHT22;2107;52.306;10.484;2023-10-08T03:03:39;10.40;99.90
4187;DHT22;2107;52.306;10.484;2023-10-08T03:06:07;10.30;99.90
4187;DHT22;2107;52.306;10.484;2023-10-08T03:08:37;10.30;99.90
4187;DHT22;2107;52.306;10.484;2023-10-08T03:11:08;10.30;99.90
4187;DHT22;2107;52.306;10.484;2023-10-08T03:13:43;10.30;99.90
4187;DHT22;2107;52.306;10.484;2023-10-08T03:16:12;10.30;99.90
4187;DHT22;2107;52.306;10.484;2023-10-08T03:18:41;10.30;99.90
4187;DHT22;2107;52.306;10.484;2023-10-08T03:21:11;10.40;99.90
4187;DHT22;2107;52.306;10.484;2023-10-08T03:23:47;10.40;99.90
4187;DHT22;2107;52.306;10.484;2023-10-08T03:26:16;10.30;99.90
4187;DHT22;2107;52.306;10.484;2023-10-08T03:28:57;10.30;99.90
4187;DHT22;2107;52.306;10.484;2023-10-08T03:31:24;10.30;99.90
4187;DHT22;2107;52.306;10.484;2023-10-08T03:34:11;10.40;99.90
4187;DHT22;2107;52.306;10.484;2023-10-08T03:36:40;10.40;99.90
4187;DHT22;2107;52.306;10.484;2023-10-08T03:39:10;10.50;99.90
4187;DHT22;2107;52.306;10.484;2023-10-08T03:41:39;10.50;99.90
4187;DHT22;2107;52.306;10.484;2023-10-08T03:44:07;10.50;99.90
4187;DHT22;2107;52.306;10.484;2023-10-08T03:46:39;10.50;99.90
4187;DHT22;2107;52.306;10.484;2023-10-08T03:49:08;10.50;99.90
4187;DHT22;2107;52.306;10.484;2023-10-08T03:51:42;10.40;99.90
4187;DHT22;2107;52.306;10.484;2023-10-08T03:54:10;10.40;99.90
4187;DHT22;2107;52.306;10.484;2023-10-08T03:56:43;10.30;99.90
4187;DHT22;2107;52.306;10.484;2023-10-08T03:59:14;10.40;99.90
4187;DHT22;2107;52.306;10.484;2023-10-08T04:01:46;10.30;99.90
4187;DHT22;2107;52.306;10.484;2023-10-08T04:04:15;10.40;99.90
4187;DHT22;2107;52.306;10.484;2023-10-08T04:06:43;10.50;99.90
4187;DHT22;2107;52.306;10.484;2023-10-08T04:09:15;10.40;99.90
4187;DHT22;2107;52.306;10.484;2023-10-08T04:11:51;10.50;99.90
4187;DHT22;2107;52.306;10.484;2023-10-08T04:14:18;10.50;99.90
4187;DHT22;2107;52.306;10.484;2023-10-08T04:16:45;10.50;99.90
4187;DHT22;2107;52.306;10.484;2023-10-08T04:19:17;10.40;99.90
4187;DHT22;2107;52.306;10.484;2023-10-08T04:21:45;10.40;99.90
4187;DHT22;2107;52.306;10.484;2023-10-08T04:24:20;10.40;99.90
4187;DHT22;2107;52.306;10.484;2023-10-08T04:26:54;10.50;99.90
4187;DHT22;2107;52.306;10.484;2023-10-08T04:29:23;10.40;99.90
4187;DHT22;2107;52.306;10.484;2023-10-08T04:31:50;10.40;99.90
4187;DHT22;2107;52.306;10.484;2023-10-08T04:34:27;10.40;99.90
4187;DHT22;2107;52.306;10.484;2023-10-08T04:36:55;10.30;99.90
4187;DHT22;2107;52.306;10.484;2023-10-08T04:39:26;10.30;99.90
4187;DHT22;2107;52.306;10.484;2023-10-08T04:41:58;10.30;99.90
4187;DHT22;2107;52.306;10.484;2023-10-08T04:44:31;10.20;99.90
4187;DHT22;2107;52.306;10.484;2023-10-08T04:46:59;10.20;99.90
4187;DHT22;2107;52.306;10.484;2023-10-08T04:49:30;10.10;99.90
4187;DHT22;2107;52.306;10.484;2023-10-08T04:52:00;10.20;99.90
4187;DHT22;2107;52.306;10.484;2023-10-08T04:54:31;10.10;99.90
4187;DHT22;2107;52.306;10.484;2023-10-08T04:57:01;10.00;99.90
4187;DHT22;2107;52.306;10.484;2023-10-08T04:59:31;10.10;99.90
4187;DHT22;2107;52.306;10.484;2023-10-08T05:02:02;10.10;99.90
4187;DHT22;2107;52.306;10.484;2023-10-08T05:04:45;10.10;99.90
4187;DHT22;2107;52.306;10.484;2023-10-08T05:07:23;10.10;99.90
4187;DHT22;2107;52.306;10.484;2023-10-08T05:10:08;10.10;99.90
4187;DHT22;2107;52.306;10.484;2023-10-08T05:12:57;10.10;99.90
4187;DHT22;2107;52.306;10.484;2023-10-08T05:15:40;10.10;99.90
4187;DHT22;2107;52.306;10.484;2023-10-08T05:18:15;10.20;99.90
4187;DHT22;2107;52.306;10.484;2023-10-08T05:20:49;10.20;99.90
4187;DHT22;2107;52.306;10.484;2023-10-08T05:23:37;10.20;99.90
4187;DHT22;2107;52.306;10.484;2023-10-08T05:26:43;10.20;99.90
4187;DHT22;2107;52.306;10.484;2023-10-08T05:29:15;10.20;99.90
4187;DHT22;2107;52.306;10.484;2023-10-08T05:31:59;10.20;99.90
4187;DHT22;2107;52.306;10.484;2023-10-08T05:34:40;10.20;99.90
4187;DHT22;2107;52.306;10.484;2023-10-08T05:37:17;10.20;99.90
4187;DHT22;2107;52.306;10.484;2023-10-08T05:40:00;10.30;99.90
4187;DHT22;2107;52.306;10.484;2023-10-08T05:42:46;10.30;99.90
4187;DHT22;2107;52.306;10.484;2023-10-08T05:45:15;10.40;99.90
4187;DHT22;2107;52.306;10.484;2023-10-08T05:47:55;10.30;99.90
4187;DHT22;2107;52.306;10.484;2023-10-08T05:50:39;10.40;99.90
4187;DHT22;2107;52.306;10.484;2023-10-08T05:53:08;10.40;99.90
4187;DHT22;2107;52.306;10.484;2023-10-08T05:55:46;10.40;99.90
4187;DHT22;2107;52.306;10.484;2023-10-08T05:58:26;10.40;99.90
4187;DHT22;2107;52.306;10.484;2023-10-08T06:01:01;10.40;99.90
4187;DHT22;2107;52.306;10.484;2023-10-08T06:03:34;10.50;99.90
4187;DHT22;2107;52.306;10.484;2023-10-08T06:06:25;10.50;99.90
4187;DHT22;2107;52.306;10.484;2023-10-08T06:09:13;10.50;99.90
4187;DHT22;2107;52.306;10.484;2023-10-08T06:11:49;10.60;99.90
4187;DHT22;2107;52.306;10.484;2023-10-08T06:14:34;10.70;99.90
4187;DHT22;2107;52.306;10.484;2023-10-08T06:17:18;10.70;99.90
4187;DHT22;2107;52.306;10.484;2023-10-08T06:20:00;10.70;99.90
4187;DHT22;2107;52.306;10.484;2023-10-08T06:22:27;10.60;99.90
4187;DHT22;2107;52.306;10.484;2023-10-08T06:24:54;10.90;99.90
4187;DHT22;2107;52.306;10.484;2023-10-08T06:27:42;10.80;99.90
4187;DHT22;2107;52.306;10.484;2023-10-08T06:30:11;10.90;99.90
4187;DHT22;2107;52.306;10.484;2023-10-08T06:32:42;10.80;99.90
4187;DHT22;2107;52.306;10.484;2023-10-08T06:35:11;10.90;99.90
4187;DHT22;2107;52.306;10.484;2023-10-08T06:37:43;11.00;99.90
4187;DHT22;2107;52.306;10.484;2023-10-08T06:40:11;11.30;99.90
4187;DHT22;2107;52.306;10.484;2023-10-08T06:43:00;11.20;99.90
4187;DHT22;2107;52.306;10.484;2023-10-08T06:45:37;11.40;99.90
4187;DHT22;2107;52.306;10.484;2023-10-08T06:48:05;11.30;99.90
4187;DHT22;2107;52.306;10.484;2023-10-08T06:50:33;11.40;99.90
4187;DHT22;2107;52.306;10.484;2023-10-08T06:53:01;11.50;99.90
4187;DHT22;2107;52.306;10.484;2023-10-08T06:55:32;11.40;99.90
4187;DHT22;2107;52.306;10.484;2023-10-08T06:58:02;11.40;99.90
4187;DHT22;2107;52.306;10.484;2023-10-08T07:00:34;11.50;99.90
4187;DHT22;2107;52.306;10.484;2023-10-08T07:03:12;11.60;99.90
4187;DHT22;2107;52.306;10.484;2023-10-08T07:05:44;11.50;99.90
4187;DHT22;2107;52.306;10.484;2023-10-08T07:08:21;11.60;99.90
4187;DHT22;2107;52.306;10.484;2023-10-08T07:10:49;11.70;99.90
4187;DHT22;2107;52.306;10.484;2023-10-08T07:13:17;11.70;99.90
4187;DHT22;2107;52.306;10.484;2023-10-08T07:15:45;11.70;99.90
4187;DHT22;2107;52.306;10.484;2023-10-08T07:18:12;11.70;99.90
4187;DHT22;2107;52.306;10.484;2023-10-08T07:20:44;11.80;99.90
4187;DHT22;2107;52.306;10.484;2023-10-08T07:23:11;11.90;99.90
4187;DHT22;2107;52.306;10.484;2023-10-08T07:25:48;12.00;99.90
4187;DHT22;2107;52.306;10.484;2023-10-08T07:28:20;12.10;99.90
4187;DHT22;2107;52.306;10.484;2023-10-08T07:30:47;12.20;99.90
4187;DHT22;2107;52.306;10.484;2023-10-08T07:33:15;12.50;99.90
4187;DHT22;2107;52.306;10.484;2023-10-08T07:35:46;12.70;99.90
4187;DHT22;2107;52.306;10.484;2023-10-08T07:38:29;12.80;99.90
4187;DHT22;2107;52.306;10.484;2023-10-08T07:40:56;13.10;99.90
4187;DHT22;2107;52.306;10.484;2023-10-08T07:43:24;13.00;99.90
4187;DHT22;2107;52.306;10.484;2023-10-08T07:45:52;13.10;99.90
4187;DHT22;2107;52.306;10.484;2023-10-08T07:48:20;13.40;99.90
4187;DHT22;2107;52.306;10.484;2023-10-08T07:50:50;13.60;99.90
4187;DHT22;2107;52.306;10.484;2023-10-08T07:53:17;13.80;99.90
4187;DHT22;2107;52.306;10.484;2023-10-08T07:55:47;13.80;99.90
4187;DHT22;2107;52.306;10.484;2023-10-08T07:58:15;13.80;99.90
4187;DHT22;2107;52.306;10.484;2023-10-08T08:00:44;13.90;99.90
4187;DHT22;2107;52.306;10.484;2023-10-08T08:03:21;14.10;99.90
4187;DHT22;2107;52.306;10.484;2023-10-08T08:05:49;14.10;99.90
4187;DHT22;2107;52.306;10.484;2023-10-08T08:08:22;14.30;99.90
4187;DHT22;2107;52.306;10.484;2023-10-08T08:10:52;14.30;99.90
4187;DHT22;2107;52.306;10.484;2023-10-08T08:13:24;14.30;99.90
4187;DHT22;2107;52.306;10.484;2023-10-08T08:15:56;14.40;99.90
4187;DHT22;2107;52.306;10.484;2023-10-08T08:18:25;14.60;99.90
4187;DHT22;2107;52.306;10.484;2023-10-08T08:21:00;14.70;99.90
4187;DHT22;2107;52.306;10.484;2023-10-08T08:23:28;14.70;99.90
4187;DHT22;2107;52.306;10.484;2023-10-08T08:25:56;14.70;99.90
4187;DHT22;2107;52.306;10.484;2023-10-08T08:28:32;14.70;99.90
4187;DHT22;2107;52.306;10.484;2023-10-08T08:31:03;14.90;99.90
4187;DHT22;2107;52.306;10.484;2023-10-08T08:33:34;15.20;99.90
4187;DHT22;2107;52.306;10.484;2023-10-08T08:36:18;15.40;99.90
4187;DHT22;2107;52.306;10.484;2023-10-08T08:38:46;15.60;99.90
4187;DHT22;2107;52.306;10.484;2023-10-08T08:41:13;15.80;99.90
4187;DHT22;2107;52.306;10.484;2023-10-08T08:43:44;15.60;99.90
4187;DHT22;2107;52.306;10.484;2023-10-08T08:46:12;15.60;99.90
4187;DHT22;2107;52.306;10.484;2023-10-08T08:48:40;15.70;99.90
4187;DHT22;2107;52.306;10.484;2023-10-08T08:51:08;15.70;99.90
4187;DHT22;2107;52.306;10.484;2023-10-08T08:53:36;15.30;99.90
4187;DHT22;2107;52.306;10.484;2023-10-08T08:56:06;15.50;99.90
4187;DHT22;2107;52.306;10.484;2023-10-08T08:58:35;15.90;99.90
4187;DHT22;2107;52.306;10.484;2023-10-08T09:01:04;16.00;99.90
4187;DHT22;2107;52.306;10.484;2023-10-08T09:03:35;16.10;99.90
4187;DHT22;2107;52.306;10.484;2023-10-08T09:06:03;16.60;99.90
4187;DHT22;2107;52.306;10.484;2023-10-08T09:08:34;16.90;99.90
4187;DHT22;2107;52.306;10.484;2023-10-08T09:11:01;17.10;99.90
4187;DHT22;2107;52.306;10.484;2023-10-08T09:13:31;17.40;99.90
4187;DHT22;2107;52.306;10.484;2023-10-08T09:16:03;17.80;99.90
4187;DHT22;2107;52.306;10.484;2023-10-08T09:18:34;18.20;99.90
4187;DHT22;2107;52.306;10.484;2023-10-08T09:21:09;18.50;99.90
4187;DHT22;2107;52.306;10.484;2023-10-08T09:23:39;18.70;99.90
4187;DHT22;2107;52.306;10.484;2023-10-08T09:26:10;19.10;99.90
4187;DHT22;2107;52.306;10.484;2023-10-08T09:28:39;19.40;99.90
4187;DHT22;2107;52.306;10.484;2023-10-08T09:31:10;19.60;99.90
4187;DHT22;2107;52.306;10.484;2023-10-08T09:33:40;20.10;99.90
4187;DHT22;2107;52.306;10.484;2023-10-08T09:36:10;20.20;99.90
4187;DHT22;2107;52.306;10.484;2023-10-08T09:38:42;20.00;99.90
4187;DHT22;2107;52.306;10.484;2023-10-08T09:41:11;20.10;99.90
4187;DHT22;2107;52.306;10.484;2023-10-08T09:43:41;20.10;99.90
4187;DHT22;2107;52.306;10.484;2023-10-08T09:46:15;20.10;99.90
4187;DHT22;2107;52.306;10.484;2023-10-08T09:48:49;19.40;99.90
4187;DHT22;2107;52.306;10.484;2023-10-08T09:51:17;19.40;99.90
4187;DHT22;2107;52.306;10.484;2023-10-08T09:53:52;19.00;99.90
4187;DHT22;2107;52.306;10.484;2023-10-08T09:56:20;18.80;99.90
4187;DHT22;2107;52.306;10.484;2023-10-08T09:58:47;19.10;99.90
4187;DHT22;2107;52.306;10.484;2023-10-08T10:01:16;19.90;99.90
4187;DHT22;2107;52.306;10.484;2023-10-08T10:03:45;19.60;99.90
4187;DHT22;2107;52.306;10.484;2023-10-08T10:06:13;20.30;99.90
4187;DHT22;2107;52.306;10.484;2023-10-08T10:08:42;21.10;99.90
4187;DHT22;2107;52.306;10.484;2023-10-08T10:11:09;21.10;99.90
4187;DHT22;2107;52.306;10.484;2023-10-08T10:13:41;21.40;99.90
4187;DHT22;2107;52.306;10.484;2023-10-08T10:16:10;21.50;99.90
4187;DHT22;2107;52.306;10.484;2023-10-08T10:18:39;20.70;99.90
4187;DHT22;2107;52.306;10.484;2023-10-08T10:21:26;20.40;99.90
4187;DHT22;2107;52.306;10.484;2023-10-08T10:23:54;20.40;99.90
4187;DHT22;2107;52.306;10.484;2023-10-08T10:26:24;20.60;99.90
4187;DHT22;2107;52.306;10.484;2023-10-08T10:29:21;21.10;99.90
4187;DHT22;2107;52.306;10.484;2023-10-08T10:31:52;21.30;99.90
4187;DHT22;2107;52.306;10.484;2023-10-08T10:34:21;21.30;99.90
4187;DHT22;2107;52.306;10.484;2023-10-08T10:36:51;21.40;99.80
4187;DHT22;2107;52.306;10.484;2023-10-08T10:39:25;21.60;98.70
4187;DHT22;2107;52.306;10.484;2023-10-08T10:41:59;21.50;98.20
4187;DHT22;2107;52.306;10.484;2023-10-08T10:44:29;21.00;97.60
4187;DHT22;2107;52.306;10.484;2023-10-08T10:46:57;20.80;97.90
4187;DHT22;2107;52.306;10.484;2023-10-08T10:49:38;20.70;97.90
4187;DHT22;2107;52.306;10.484;2023-10-08T10:52:15;21.10;97.20
4187;DHT22;2107;52.306;10.484;2023-10-08T10:55:00;21.50;97.60
4187;DHT22;2107;52.306;10.484;2023-10-08T10:57:44;21.50;96.50
4187;DHT22;2107;52.306;10.484;2023-10-08T11:00:19;21.00;95.70
4187;DHT22;2107;52.306;10.484;2023-10-08T11:03:13;20.40;94.30
4187;DHT22;2107;52.306;10.484;2023-10-08T11:05:44;19.90;94.00
4187;DHT22;2107;52.306;10.484;2023-10-08T11:08:16;19.10;94.20
4187;DHT22;2107;52.306;10.484;2023-10-08T11:10:46;18.90;95.00
4187;DHT22;2107;52.306;10.484;2023-10-08T11:13:17;19.30;95.80
4187;DHT22;2107;52.306;10.484;2023-10-08T11:15:46;19.80;96.00
4187;DHT22;2107;52.306;10.484;2023-10-08T11:18:18;20.20;94.30
4187;DHT22;2107;52.306;10.484;2023-10-08T11:20:46;20.10;94.10
4187;DHT22;2107;52.306;10.484;2023-10-08T11:23:33;20.20;94.90
4187;DHT22;2107;52.306;10.484;2023-10-08T11:26:02;20.40;95.70
4187;DHT22;2107;52.306;10.484;2023-10-08T11:28:29;21.00;94.10
4187;DHT22;2107;52.306;10.484;2023-10-08T11:30:59;20.60;95.50
4187;DHT22;2107;52.306;10.484;2023-10-08T11:33:34;21.40;94.10
4187;DHT22;2107;52.306;10.484;2023-10-08T11:36:02;22.30;93.10
4187;DHT22;2107;52.306;10.484;2023-10-08T11:38:39;22.20;92.90
4187;DHT22;2107;52.306;10.484;2023-10-08T11:41:14;21.70;92.40
4187;DHT22;2107;52.306;10.484;2023-10-08T11:43:49;21.60;91.80
4187;DHT22;2107;52.306;10.484;2023-10-08T11:46:21;21.80;90.80
4187;DHT22;2107;52.306;10.484;2023-10-08T11:48:48;22.10;89.80
4187;DHT22;2107;52.306;10.484;2023-10-08T11:51:16;21.90;90.00
4187;DHT22;2107;52.306;10.484;2023-10-08T11:53:44;21.50;89.90
4187;DHT22;2107;52.306;10.484;2023-10-08T11:56:12;21.10;89.70
4187;DHT22;2107;52.306;10.484;2023-10-08T11:58:40;21.10;90.20
4187;DHT22;2107;52.306;10.484;2023-10-08T12:01:10;20.60;86.60
4187;DHT22;2107;52.306;10.484;2023-10-08T12:03:41;20.40;88.30
4187;DHT22;2107;52.306;10.484;2023-10-08T12:06:09;20.50;90.00
4187;DHT22;2107;52.306;10.484;2023-10-08T12:08:41;20.70;87.90
4187;DHT22;2107;52.306;10.484;2023-10-08T12:11:12;20.70;85.80
4187;DHT22;2107;52.306;10.484;2023-10-08T12:13:39;20.70;86.20
4187;DHT22;2107;52.306;10.484;2023-10-08T12:16:11;20.60;89.80
4187;DHT22;2107;52.306;10.484;2023-10-08T12:18:44;20.60;90.40
4187;DHT22;2107;52.306;10.484;2023-10-08T12:21:14;20.90;87.50
4187;DHT22;2107;52.306;10.484;2023-10-08T12:23:43;21.40;88.00
4187;DHT22;2107;52.306;10.484;2023-10-08T12:26:13;21.50;86.10
4187;DHT22;2107;52.306;10.484;2023-10-08T12:28:44;21.30;84.70
4187;DHT22;2107;52.306;10.484;2023-10-08T12:31:12;21.50;84.60
4187;DHT22;2107;52.306;10.484;2023-10-08T12:33:41;21.60;83.30
4187;DHT22;2107;52.306;10.484;2023-10-08T12:36:09;21.90;87.30
4187;DHT22;2107;52.306;10.484;2023-10-08T12:38:40;20.10;84.40
4187;DHT22;2107;52.306;10.484;2023-10-08T12:41:10;20.40;88.40
4187;DHT22;2107;52.306;10.484;2023-10-08T12:43:44;20.80;85.70
4187;DHT22;2107;52.306;10.484;2023-10-08T12:46:12;20.50;88.50
4187;DHT22;2107;52.306;10.484;2023-10-08T12:48:45;20.80;88.40
4187;DHT22;2107;52.306;10.484;2023-10-08T12:51:16;20.70;86.20
4187;DHT22;2107;52.306;10.484;2023-10-08T12:53:44;20.50;87.40
4187;DHT22;2107;52.306;10.484;2023-10-08T12:56:24;20.50;89.90
4187;DHT22;2107;52.306;10.484;2023-10-08T12:58:58;19.80;84.80
4187;DHT22;2107;52.306;10.484;2023-10-08T13:01:27;20.00;90.40
4187;DHT22;2107;52.306;10.484;2023-10-08T13:03:55;20.30;90.60
4187;DHT22;2107;52.306;10.484;2023-10-08T13:06:27;20.70;89.80
4187;DHT22;2107;52.306;10.484;2023-10-08T13:08:55;21.00;86.80
4187;DHT22;2107;52.306;10.484;2023-10-08T13:11:23;20.80;83.40
4187;DHT22;2107;52.306;10.484;2023-10-08T13:13:51;21.40;81.60
4187;DHT22;2107;52.306;10.484;2023-10-08T13:16:19;21.30;79.20
4187;DHT22;2107;52.306;10.484;2023-10-08T13:18:47;21.70;84.00
4187;DHT22;2107;52.306;10.484;2023-10-08T13:21:14;21.80;84.60
4187;DHT22;2107;52.306;10.484;2023-10-08T13:23:41;21.80;84.60
4187;DHT22;2107;52.306;10.484;2023-10-08T13:26:08;21.70;83.60
4187;DHT22;2107;52.306;10.484;2023-10-08T13:28:36;21.60;84.30
4187;DHT22;2107;52.306;10.484;2023-10-08T13:31:03;22.00;85.40
4187;DHT22;2107;52.306;10.484;2023-10-08T13:33:37;22.20;83.80
4187;DHT22;2107;52.306;10.484;2023-10-08T13:36:08;22.30;83.70
4187;DHT22;2107;52.306;10.484;2023-10-08T13:38:36;22.50;82.80
4187;DHT22;2107;52.306;10.484;2023-10-08T13:41:03;22.60;81.50
4187;DHT22;2107;52.306;10.484;2023-10-08T13:43:32;21.90;77.70
4187;DHT22;2107;52.306;10.484;2023-10-08T13:46:04;21.40;80.60
4187;DHT22;2107;52.306;10.484;2023-10-08T13:48:33;21.40;83.30
4187;DHT22;2107;52.306;10.484;2023-10-08T13:51:03;21.80;81.00
4187;DHT22;2107;52.306;10.484;2023-10-08T13:53:31;22.90;81.10
4187;DHT22;2107;52.306;10.484;2023-10-08T13:55:59;24.10;82.30
4187;DHT22;2107;52.306;10.484;2023-10-08T13:58:27;25.20;80.40
4187;DHT22;2107;52.306;10.484;2023-10-08T14:00:56;26.00;76.50
4187;DHT22;2107;52.306;10.484;2023-10-08T14:03:25;26.20;72.90
4187;DHT22;2107;52.306;10.484;2023-10-08T14:05:52;26.00;70.20
4187;DHT22;2107;52.306;10.484;2023-10-08T14:08:21;25.60;68.10
4187;DHT22;2107;52.306;10.484;2023-10-08T14:10:50;25.00;69.50
4187;DHT22;2107;52.306;10.484;2023-10-08T14:13:17;23.50;68.70
4187;DHT22;2107;52.306;10.484;2023-10-08T14:15:45;23.30;71.00
4187;DHT22;2107;52.306;10.484;2023-10-08T14:18:15;23.10;75.30
4187;DHT22;2107;52.306;10.484;2023-10-08T14:20:44;22.20;75.50
4187;DHT22;2107;52.306;10.484;2023-10-08T14:23:13;21.30;75.70
4187;DHT22;2107;52.306;10.484;2023-10-08T14:25:43;20.90;77.90
4187;DHT22;2107;52.306;10.484;2023-10-08T14:28:11;20.70;78.60
4187;DHT22;2107;52.306;10.484;2023-10-08T14:30:50;20.50;78.80
4187;DHT22;2107;52.306;10.484;2023-10-08T14:33:21;20.20;80.50
4187;DHT22;2107;52.306;10.484;2023-10-08T14:35:53;19.90;79.80
4187;DHT22;2107;52.306;10.484;2023-10-08T14:38:37;19.90;80.80
4187;DHT22;2107;52.306;10.484;2023-10-08T14:41:23;19.50;83.00
4187;DHT22;2107;52.306;10.484;2023-10-08T14:44:15;19.30;85.10
4187;DHT22;2107;52.306;10.484;2023-10-08T14:46:42;19.30;87.30
4187;DHT22;2107;52.306;10.484;2023-10-08T14:49:10;19.40;85.60
4187;DHT22;2107;52.306;10.484;2023-10-08T14:51:38;19.60;86.10
4187;DHT22;2107;52.306;10.484;2023-10-08T14:54:06;19.80;85.90
4187;DHT22;2107;52.306;10.484;2023-10-08T14:56:36;19.90;86.70
4187;DHT22;2107;52.306;10.484;2023-10-08T14:59:03;20.10;85.50
4187;DHT22;2107;52.306;10.484;2023-10-08T15:01:30;20.20;84.80
4187;DHT22;2107;52.306;10.484;2023-10-08T15:03:59;19.80;84.00
4187;DHT22;2107;52.306;10.484;2023-10-08T15:06:30;19.50;87.60
4187;DHT22;2107;52.306;10.484;2023-10-08T15:08:57;19.50;84.60
4187;DHT22;2107;52.306;10.484;2023-10-08T15:11:24;19.10;82.80
4187;DHT22;2107;52.306;10.484;2023-10-08T15:13:53;19.10;84.60
4187;DHT22;2107;52.306;10.484;2023-10-08T15:16:21;19.00;88.50
4187;DHT22;2107;52.306;10.484;2023-10-08T15:18:49;19.00;89.20
4187;DHT22;2107;52.306;10.484;2023-10-08T15:21:16;18.70;89.80
4187;DHT22;2107;52.306;10.484;2023-10-08T15:23:44;18.40;86.90
4187;DHT22;2107;52.306;10.484;2023-10-08T15:26:11;18.10;89.20
4187;DHT22;2107;52.306;10.484;2023-10-08T15:28:38;18.00;89.00
4187;DHT22;2107;52.306;10.484;2023-10-08T15:31:07;17.80;88.90
4187;DHT22;2107;52.306;10.484;2023-10-08T15:33:34;17.60;90.70
4187;DHT22;2107;52.306;10.484;2023-10-08T15:36:00;17.30;90.90
4187;DHT22;2107;52.306;10.484;2023-10-08T15:38:27;17.10;91.30
4187;DHT22;2107;52.306;10.484;2023-10-08T15:40:56;17.10;94.10
4187;DHT22;2107;52.306;10.484;2023-10-08T15:43:25;17.00;96.00
4187;DHT22;2107;52.306;10.484;2023-10-08T15:45:53;16.80;97.20
4187;DHT22;2107;52.306;10.484;2023-10-08T15:48:21;16.70;96.30
4187;DHT22;2107;52.306;10.484;2023-10-08T15:50:48;16.60;97.00
4187;DHT22;2107;52.306;10.484;2023-10-08T15:53:15;16.60;96.60
4187;DHT22;2107;52.306;10.484;2023-10-08T15:55:42;16.40;95.90
4187;DHT22;2107;52.306;10.484;2023-10-08T15:58:09;16.30;95.80
4187;DHT22;2107;52.306;10.484;2023-10-08T16:00:36;16.40;96.00
4187;DHT22;2107;52.306;10.484;2023-10-08T16:03:03;16.30;99.10
4187;DHT22;2107;52.306;10.484;2023-10-08T16:05:32;16.30;99.90
4187;DHT22;2107;52.306;10.484;2023-10-08T16:08:00;16.20;99.90
4187;DHT22;2107;52.306;10.484;2023-10-08T16:10:27;16.10;99.90
4187;DHT22;2107;52.306;10.484;2023-10-08T16:12:54;15.80;99.90